Time;durP1;ratioP1;P1;durP2;ratioP2;P2;SDS_P1;SDS_P2;PMS_P1;PMS_P2;Temp;Humidity;BMP_temperature;BMP_pressure;BME280_temperature;BME280_humidity;BME280_pressure;Samples;Min_cycle;Max_cycle;Signal;HPM_P1;HPM_P2
2022/11/22 00:00:59;;;;;;;2.50;1.07;;;4.80;99.90;;;;;;5014376;28;20495;-69
2022/11/22 00:03:24;;;;;;;3.20;1.27;;;4.80;99.90;;;;;;5021172;28;20639;-69
2022/11/22 00:05:50;;;;;;;4.30;1.73;;;4.80;99.90;;;;;;5030916;28;20245;-69
2022/11/22 00:08:16;;;;;;;11.80;1.50;;;4.80;99.90;;;;;;5031827;28;20206;-69
2022/11/22 00:10:41;;;;;;;2.70;1.20;;;4.80;99.90;;;;;;5028803;28;20190;-70
2022/11/22 00:13:08;;;;;;;3.53;0.83;;;4.90;99.90;;;;;;5011423;28;20202;-70
2022/11/22 00:15:33;;;;;;;1.93;0.90;;;4.90;99.90;;;;;;5028148;28;20192;-70
2022/11/22 00:17:59;;;;;;;5.57;1.63;;;4.90;99.90;;;;;;5031419;28;20504;-69
2022/11/22 00:20:24;;;;;;;3.97;1.07;;;4.90;99.90;;;;;;5023648;28;20186;-69
2022/11/22 00:22:50;;;;;;;2.10;0.90;;;4.90;99.90;;;;;;5024776;28;20659;-69
2022/11/22 00:25:16;;;;;;;2.40;1.03;;;4.90;99.90;;;;;;5021246;28;20187;-69
2022/11/22 00:27:42;;;;;;;3.30;1.10;;;4.90;99.90;;;;;;5016651;28;20568;-69
2022/11/22 00:30:08;;;;;;;6.03;1.73;;;4.90;99.90;;;;;;5026197;28;20581;-70
2022/11/22 00:32:33;;;;;;;1.90;1.10;;;4.90;99.90;;;;;;5030057;28;20228;-70
2022/11/22 00:34:59;;;;;;;5.13;1.20;;;4.90;99.90;;;;;;5028297;28;20429;-69
2022/11/22 00:37:24;;;;;;;2.50;1.20;;;4.90;99.90;;;;;;5011728;28;20187;-69
2022/11/22 00:39:50;;;;;;;1.60;0.77;;;4.90;99.90;;;;;;5014055;28;20290;-70
2022/11/22 00:42:17;;;;;;;4.23;1.23;;;5.00;99.90;;;;;;5022048;28;20210;-70
2022/11/22 00:44:42;;;;;;;3.50;1.13;;;4.90;99.90;;;;;;5026619;28;20193;-69
2022/11/22 00:47:08;;;;;;;2.83;0.93;;;4.90;99.90;;;;;;5031326;28;20749;-69
2022/11/22 00:49:33;;;;;;;3.20;0.90;;;5.00;99.90;;;;;;5015894;28;20271;-69
2022/11/22 00:51:59;;;;;;;3.13;1.53;;;4.90;99.90;;;;;;5011570;28;20873;-70
2022/11/22 00:54:24;;;;;;;2.37;1.30;;;5.00;99.90;;;;;;5019560;28;20199;-69
2022/11/22 00:56:50;;;;;;;3.10;1.53;;;5.00;99.90;;;;;;5025516;28;20189;-69
2022/11/22 00:59:16;;;;;;;2.23;0.80;;;5.00;99.90;;;;;;5030548;28;20670;-68
2022/11/22 01:01:41;;;;;;;3.17;1.60;;;5.00;99.90;;;;;;5030720;28;20260;-68
2022/11/22 01:04:07;;;;;;;3.13;1.10;;;5.00;99.90;;;;;;5028828;28;20198;-68
2022/11/22 01:06:32;;;;;;;1.60;1.00;;;5.00;99.90;;;;;;5010562;28;20682;-68
2022/11/22 01:08:58;;;;;;;1.47;0.87;;;5.00;99.90;;;;;;5015682;28;20202;-68
2022/11/22 01:11:24;;;;;;;2.37;1.10;;;5.00;99.90;;;;;;5022229;28;20270;-68
2022/11/22 01:13:49;;;;;;;1.63;1.07;;;5.00;99.90;;;;;;5021628;28;20171;-68
2022/11/22 01:16:15;;;;;;;6.33;1.53;;;5.00;99.90;;;;;;5033222;28;20213;-69
2022/11/22 01:18:41;;;;;;;3.53;1.80;;;5.00;99.90;;;;;;5034652;28;20568;-69
2022/11/22 01:21:07;;;;;;;3.40;1.27;;;5.00;99.90;;;;;;5034123;28;20190;-69
2022/11/22 01:23:33;;;;;;;5.63;1.40;;;5.00;99.90;;;;;;5029307;28;20179;-69
2022/11/22 01:26:00;;;;;;;1.60;0.80;;;5.00;99.90;;;;;;5026184;28;20647;-68
2022/11/22 01:28:26;;;;;;;5.17;1.20;;;5.00;99.90;;;;;;5027374;28;21218;-69
2022/11/22 01:30:53;;;;;;;2.17;1.17;;;5.00;99.90;;;;;;5023160;28;20467;-69
2022/11/22 01:33:19;;;;;;;5.07;1.67;;;5.00;99.90;;;;;;5020766;28;20418;-69
2022/11/22 01:35:45;;;;;;;3.00;1.20;;;5.00;99.90;;;;;;5034814;28;20516;-69
2022/11/22 01:38:10;;;;;;;2.60;1.30;;;5.00;99.90;;;;;;5020028;28;20841;-69
2022/11/22 01:40:36;;;;;;;3.77;1.20;;;5.00;99.90;;;;;;5024288;28;20189;-69
2022/11/22 01:43:03;;;;;;;1.90;1.00;;;5.00;99.90;;;;;;5019547;28;20194;-69
2022/11/22 01:45:28;;;;;;;2.43;1.20;;;5.00;99.90;;;;;;5025770;28;20425;-69
2022/11/22 01:48:11;;;;;;;3.90;1.23;;;5.00;99.90;;;;;;5014492;28;20512;-69
2022/11/22 01:50:41;;;;;;;3.43;1.20;;;5.00;99.90;;;;;;5025650;28;20253;-69
2022/11/22 01:53:13;;;;;;;6.10;1.20;;;5.00;99.90;;;;;;5016492;28;21195;-69
2022/11/22 01:55:40;;;;;;;2.00;1.00;;;5.00;99.90;;;;;;5020647;28;20426;-69
2022/11/22 01:58:08;;;;;;;3.40;1.20;;;5.00;99.90;;;;;;5026920;28;20473;-69
2022/11/22 02:00:35;;;;;;;2.73;1.20;;;5.00;99.90;;;;;;5027308;28;20417;-68
2022/11/22 02:03:03;;;;;;;3.33;1.50;;;5.00;99.90;;;;;;5022978;28;20406;-69
2022/11/22 02:05:33;;;;;;;3.03;1.50;;;5.00;99.90;;;;;;5027477;28;20406;-67
2022/11/22 02:08:04;;;;;;;2.50;1.00;;;5.00;99.90;;;;;;5026934;28;20453;-68
2022/11/22 02:10:36;;;;;;;4.17;1.77;;;5.10;99.90;;;;;;5020275;28;20564;-68
2022/11/22 02:13:02;;;;;;;1.60;0.83;;;5.10;99.90;;;;;;5013570;28;20452;-68
2022/11/22 02:15:28;;;;;;;5.27;1.60;;;5.10;99.90;;;;;;5028110;28;20937;-68
2022/11/22 02:17:56;;;;;;;3.40;1.90;;;5.10;99.90;;;;;;5024925;28;20430;-68
2022/11/22 02:20:22;;;;;;;3.40;1.47;;;5.10;99.90;;;;;;5026674;28;20567;-70
2022/11/22 02:22:58;;;;;;;2.80;1.40;;;5.10;99.90;;;;;;5013453;28;20422;-69
2022/11/22 02:25:39;;;;;;;4.87;1.00;;;5.10;99.90;;;;;;5016956;28;20526;-69
2022/11/22 02:28:05;;;;;;;4.53;2.03;;;5.10;99.90;;;;;;5020826;28;20556;-69
2022/11/22 02:30:31;;;;;;;2.70;1.27;;;5.20;99.90;;;;;;5019057;28;20409;-69
2022/11/22 02:32:57;;;;;;;3.00;1.53;;;5.20;99.90;;;;;;5032608;28;20474;-69
2022/11/22 02:35:25;;;;;;;5.40;1.93;;;5.20;99.90;;;;;;5027159;28;20191;-69
2022/11/22 02:37:58;;;;;;;3.93;1.53;;;5.20;99.90;;;;;;5026591;28;20197;-69
2022/11/22 02:40:26;;;;;;;3.23;1.30;;;5.10;99.90;;;;;;5025910;28;20433;-69
2022/11/22 02:42:57;;;;;;;5.10;1.53;;;5.00;99.90;;;;;;5013860;28;20429;-69
2022/11/22 02:45:23;;;;;;;4.57;1.13;;;5.00;99.90;;;;;;5024240;28;20449;-69
2022/11/22 02:47:48;;;;;;;2.70;1.33;;;5.00;99.90;;;;;;5014488;28;20522;-69
2022/11/22 02:50:14;;;;;;;1.60;1.03;;;5.00;99.90;;;;;;5032824;28;20182;-69
2022/11/22 02:52:40;;;;;;;4.73;1.93;;;4.90;99.90;;;;;;5019473;28;20613;-69
2022/11/22 02:55:05;;;;;;;2.20;1.37;;;4.90;99.90;;;;;;5028982;28;20194;-69
2022/11/22 02:57:31;;;;;;;4.23;1.00;;;4.90;99.90;;;;;;5032889;28;20224;-69
2022/11/22 02:59:57;;;;;;;2.00;1.30;;;4.80;99.90;;;;;;5024372;28;20183;-69
2022/11/22 03:02:22;;;;;;;3.00;1.20;;;4.80;99.90;;;;;;5026744;28;20178;-67
2022/11/22 03:04:48;;;;;;;2.80;1.47;;;4.80;99.90;;;;;;5032541;28;20526;-67
2022/11/22 03:07:15;;;;;;;2.47;1.30;;;4.90;99.90;;;;;;5031996;28;20194;-68
2022/11/22 03:09:41;;;;;;;2.67;1.33;;;4.80;99.90;;;;;;5015850;28;20654;-67
2022/11/22 03:12:07;;;;;;;3.60;1.90;;;4.80;99.90;;;;;;5015675;28;20464;-68
2022/11/22 03:14:33;;;;;;;2.70;1.40;;;4.80;99.90;;;;;;5024988;28;20183;-68
2022/11/22 03:16:58;;;;;;;3.33;1.47;;;4.90;99.90;;;;;;5013434;28;20731;-68
2022/11/22 03:19:24;;;;;;;3.80;1.40;;;4.80;99.90;;;;;;5025074;28;20179;-68
2022/11/22 03:21:49;;;;;;;5.53;1.90;;;4.90;99.90;;;;;;5019402;28;20221;-68
2022/11/22 03:24:15;;;;;;;8.10;1.80;;;4.90;99.90;;;;;;5019253;28;20183;-68
2022/11/22 03:26:45;;;;;;;3.13;1.53;;;4.90;99.90;;;;;;5032348;28;20186;-67
2022/11/22 03:29:11;;;;;;;2.73;1.23;;;4.90;99.90;;;;;;5031577;28;20298;-68
2022/11/22 03:31:36;;;;;;;3.23;1.30;;;4.90;99.90;;;;;;5031364;28;20500;-68
2022/11/22 03:34:02;;;;;;;3.00;1.30;;;4.90;99.90;;;;;;5019206;28;20174;-68
2022/11/22 03:36:27;;;;;;;2.77;1.40;;;4.90;99.90;;;;;;5031995;28;20186;-67
2022/11/22 03:38:53;;;;;;;3.03;1.77;;;4.90;99.90;;;;;;5025723;28;20186;-68
2022/11/22 03:41:19;;;;;;;1.73;0.90;;;4.80;99.90;;;;;;5022290;28;21547;-68
2022/11/22 03:43:44;;;;;;;1.60;1.00;;;4.80;99.90;;;;;;5025797;28;20189;-67
2022/11/22 03:46:15;;;;;;;1.90;0.93;;;4.80;99.90;;;;;;5027388;28;20222;-68
2022/11/22 03:48:41;;;;;;;3.97;1.70;;;4.80;99.90;;;;;;5031701;28;20289;-68
2022/11/22 03:51:07;;;;;;;2.20;0.83;;;4.70;99.90;;;;;;5027659;28;20477;-68
2022/11/22 03:53:32;;;;;;;7.43;1.67;;;4.80;99.90;;;;;;5016097;28;20190;-68
2022/11/22 03:55:59;;;;;;;2.50;1.40;;;4.80;99.90;;;;;;5027871;28;20182;-68
2022/11/22 03:58:24;;;;;;;5.63;1.17;;;4.70;99.90;;;;;;5020273;28;20904;-68
2022/11/22 04:00:50;;;;;;;8.20;1.77;;;4.70;99.90;;;;;;5031995;28;20431;-69
2022/11/22 04:03:15;;;;;;;2.77;1.10;;;4.70;99.90;;;;;;5031164;28;20189;-68
2022/11/22 04:05:41;;;;;;;8.57;1.70;;;4.60;99.90;;;;;;5031298;28;20225;-68
2022/11/22 04:08:06;;;;;;;2.23;1.10;;;4.60;99.90;;;;;;5030389;28;20631;-68
2022/11/22 04:10:32;;;;;;;5.53;1.20;;;4.60;99.90;;;;;;5011923;28;20225;-68
2022/11/22 04:12:58;;;;;;;3.67;1.47;;;4.60;99.90;;;;;;5011764;28;20179;-68
2022/11/22 04:15:27;;;;;;;3.30;1.07;;;4.60;99.90;;;;;;5011350;28;20632;-68
2022/11/22 04:17:53;;;;;;;3.83;1.00;;;4.70;99.90;;;;;;5011709;28;20429;-68
2022/11/22 04:23:12;;;;;;;3.47;1.47;;;4.60;99.90;;;;;;5014423;28;20610;-68
2022/11/22 04:25:40;;;;;;;2.90;1.27;;;4.60;99.90;;;;;;5025702;28;20425;-68
2022/11/22 04:28:07;;;;;;;1.70;0.90;;;4.60;99.90;;;;;;5024079;28;20464;-67
2022/11/22 04:33:18;;;;;;;1.30;0.70;;;4.60;99.90;;;;;;5025004;28;20420;-68
2022/11/22 04:35:45;;;;;;;6.90;1.43;;;4.50;99.90;;;;;;5031916;28;20417;-67
2022/11/22 04:38:11;;;;;;;4.77;1.93;;;4.50;99.90;;;;;;5031872;28;20206;-67
2022/11/22 04:40:38;;;;;;;3.83;1.13;;;4.40;99.90;;;;;;5023743;28;20720;-67
2022/11/22 04:45:50;;;;;;;4.30;1.43;;;4.40;99.90;;;;;;5025343;28;20773;-67
2022/11/22 04:48:16;;;;;;;3.03;1.10;;;4.40;99.90;;;;;;5031021;28;20465;-68
2022/11/22 04:53:28;;;;;;;1.20;0.70;;;4.30;99.90;;;;;;5038238;28;20955;-66
2022/11/22 04:55:54;;;;;;;1.73;0.60;;;4.20;99.90;;;;;;5050545;28;20425;-66
2022/11/22 04:58:20;;;;;;;4.63;1.40;;;4.20;99.90;;;;;;5060636;28;20437;-66
2022/11/22 05:00:46;;;;;;;2.50;1.03;;;4.20;99.90;;;;;;5060956;28;20448;-66
2022/11/22 05:03:11;;;;;;;5.57;0.90;;;4.10;99.90;;;;;;5052047;28;20428;-66
2022/11/22 05:05:39;;;;;;;1.20;0.67;;;4.10;99.90;;;;;;5036905;28;20179;-67
2022/11/22 05:08:06;;;;;;;2.50;0.80;;;4.10;99.90;;;;;;5035526;28;20246;-66
2022/11/22 05:10:55;;;;;;;5.87;1.43;;;4.20;99.90;;;;;;5024434;28;20823;-67
2022/11/22 05:13:19;;;;;;;2.03;0.60;;;4.20;99.90;;;;;;5032294;28;20425;-67
2022/11/22 05:15:45;;;;;;;1.63;0.87;;;4.20;99.90;;;;;;5034699;28;20413;-66
2022/11/22 05:18:11;;;;;;;2.13;1.47;;;4.20;99.90;;;;;;5022761;28;21286;-67
2022/11/22 05:20:36;;;;;;;4.03;1.47;;;4.20;99.90;;;;;;5028340;28;20240;-67
2022/11/22 05:25:46;;;;;;;7.13;0.80;;;4.20;99.90;;;;;;5034634;28;20224;-67
2022/11/22 05:28:12;;;;;;;3.97;1.10;;;4.20;99.90;;;;;;5019939;28;20589;-67
2022/11/22 05:30:38;;;;;;;4.90;1.20;;;4.20;99.90;;;;;;5015279;28;20183;-67
2022/11/22 05:33:04;;;;;;;8.90;1.93;;;4.20;99.90;;;;;;5027951;28;20261;-67
2022/11/22 05:35:30;;;;;;;1.20;0.60;;;4.20;99.90;;;;;;5027572;28;20422;-67
2022/11/22 05:37:56;;;;;;;4.70;1.40;;;4.20;99.90;;;;;;5028710;28;20244;-67
2022/11/22 05:40:22;;;;;;;14.13;1.47;;;4.20;99.90;;;;;;5034143;28;20214;-67
2022/11/22 05:42:49;;;;;;;7.23;1.07;;;4.20;99.90;;;;;;5033942;28;20421;-67
2022/11/22 05:45:14;;;;;;;1.60;0.73;;;4.20;99.90;;;;;;5026199;28;20432;-67
2022/11/22 05:47:40;;;;;;;1.30;0.60;;;4.20;99.90;;;;;;5014563;28;20529;-67
2022/11/22 05:50:06;;;;;;;4.43;1.90;;;4.10;99.90;;;;;;5034118;28;20183;-67
2022/11/22 05:52:31;;;;;;;4.23;1.47;;;4.10;99.90;;;;;;5020571;28;20637;-67
2022/11/22 05:54:57;;;;;;;2.43;1.33;;;4.20;99.90;;;;;;5014043;28;20198;-67
2022/11/22 05:57:23;;;;;;;2.60;1.37;;;4.20;99.90;;;;;;5027641;28;20186;-67
2022/11/22 05:59:48;;;;;;;9.27;1.03;;;4.20;99.90;;;;;;5026208;28;20620;-67
2022/11/22 06:02:14;;;;;;;5.67;1.13;;;4.20;99.90;;;;;;5013368;28;20198;-67
2022/11/22 06:04:39;;;;;;;6.50;1.47;;;4.30;99.90;;;;;;5027419;28;20304;-67
2022/11/22 06:07:05;;;;;;;2.90;1.00;;;4.20;99.90;;;;;;5026021;28;20660;-68
2022/11/22 06:09:31;;;;;;;1.63;0.73;;;4.20;99.90;;;;;;5032744;28;20210;-67
2022/11/22 06:11:57;;;;;;;13.57;1.37;;;4.10;99.90;;;;;;5024949;28;20229;-68
2022/11/22 06:14:22;;;;;;;13.03;1.20;;;4.10;99.90;;;;;;5032770;28;20421;-67
2022/11/22 06:16:50;;;;;;;5.90;1.20;;;4.20;99.90;;;;;;5033675;28;20193;-67
2022/11/22 06:19:16;;;;;;;3.00;0.80;;;4.10;99.90;;;;;;5033207;28;20194;-67
2022/11/22 06:21:42;;;;;;;4.03;1.43;;;4.10;99.90;;;;;;5027891;28;20440;-67
2022/11/22 06:24:08;;;;;;;1.70;0.90;;;4.10;99.90;;;;;;5033221;28;20187;-67
2022/11/22 06:26:34;;;;;;;7.20;1.50;;;4.20;99.90;;;;;;5033301;28;20433;-67
2022/11/22 06:28:59;;;;;;;1.83;1.07;;;4.20;99.90;;;;;;5032672;28;20469;-67
2022/11/22 06:31:26;;;;;;;5.77;1.63;;;4.20;99.90;;;;;;5020062;28;20426;-67
2022/11/22 06:33:54;;;;;;;10.90;3.10;;;4.20;99.90;;;;;;5032407;28;20186;-67
2022/11/22 06:36:25;;;;;;;1.80;0.93;;;4.20;99.90;;;;;;5014759;28;20438;-67
2022/11/22 06:38:52;;;;;;;13.00;1.30;;;4.20;99.90;;;;;;5019525;28;20483;-67
2022/11/22 06:41:25;;;;;;;10.90;2.00;;;4.30;99.90;;;;;;5021224;28;20425;-67
2022/11/22 06:43:53;;;;;;;3.03;1.17;;;4.30;99.90;;;;;;5011890;28;20797;-67
2022/11/22 06:46:24;;;;;;;2.23;1.30;;;4.30;99.90;;;;;;5027189;28;20427;-67
2022/11/22 06:48:50;;;;;;;2.40;1.33;;;4.30;99.90;;;;;;5021389;28;20489;-67
2022/11/22 06:51:19;;;;;;;2.00;1.10;;;4.30;99.90;;;;;;5025158;28;20779;-67
2022/11/22 06:53:45;;;;;;;5.00;1.30;;;4.40;99.90;;;;;;5011555;28;20887;-67
2022/11/22 06:56:14;;;;;;;8.43;1.47;;;4.40;99.90;;;;;;5026232;28;20761;-67
2022/11/22 06:58:40;;;;;;;1.50;0.87;;;4.40;99.90;;;;;;5021804;28;20447;-67
2022/11/22 07:01:07;;;;;;;3.77;1.00;;;4.40;99.90;;;;;;5019118;28;20421;-67
2022/11/22 07:03:37;;;;;;;4.13;1.63;;;4.50;99.90;;;;;;5023486;28;20438;-67
2022/11/22 07:06:03;;;;;;;9.60;2.10;;;4.50;99.90;;;;;;5014932;28;20472;-66
2022/11/22 07:08:30;;;;;;;3.33;1.43;;;4.50;99.90;;;;;;5012056;28;20466;-67
2022/11/22 07:11:08;;;;;;;5.43;1.13;;;4.60;99.90;;;;;;5019947;28;20422;-67
2022/11/22 07:13:35;;;;;;;3.90;1.40;;;4.60;99.90;;;;;;5010198;28;20544;-67
2022/11/22 07:16:03;;;;;;;3.20;1.00;;;4.60;99.90;;;;;;5031141;28;20421;-67
2022/11/22 07:18:29;;;;;;;3.60;1.40;;;4.60;99.90;;;;;;5027523;28;20430;-66
2022/11/22 07:21:09;;;;;;;6.10;1.80;;;4.60;99.90;;;;;;5020847;28;20437;-67
2022/11/22 07:23:35;;;;;;;2.53;1.07;;;4.70;99.90;;;;;;5022259;28;20174;-66
2022/11/22 07:26:01;;;;;;;3.97;1.87;;;4.70;99.90;;;;;;5022110;28;20515;-66
2022/11/22 07:28:26;;;;;;;10.97;1.40;;;4.70;99.90;;;;;;5026266;28;20210;-67
2022/11/22 07:30:52;;;;;;;2.83;1.60;;;4.70;99.90;;;;;;5026251;28;20563;-67
2022/11/22 07:33:18;;;;;;;6.50;1.47;;;4.70;99.90;;;;;;5027265;28;20201;-67
2022/11/22 07:35:43;;;;;;;9.63;1.10;;;4.70;99.90;;;;;;5015077;28;20191;-67
2022/11/22 07:38:09;;;;;;;4.13;1.27;;;4.80;99.90;;;;;;5019282;28;20734;-67
2022/11/22 07:40:34;;;;;;;5.23;2.00;;;4.70;99.90;;;;;;5018316;28;20565;-67
2022/11/22 07:43:00;;;;;;;7.70;1.30;;;4.80;99.90;;;;;;5004551;28;20215;-67
2022/11/22 07:45:26;;;;;;;10.53;2.03;;;4.70;99.90;;;;;;5018971;28;20209;-67
2022/11/22 07:47:51;;;;;;;9.50;1.60;;;4.80;99.90;;;;;;5028853;28;20865;-67
2022/11/22 07:50:17;;;;;;;4.37;1.53;;;4.70;99.90;;;;;;5009840;28;20194;-67
2022/11/22 07:52:42;;;;;;;1.90;1.10;;;4.80;99.90;;;;;;5007580;28;20198;-67
2022/11/22 07:55:08;;;;;;;2.23;1.63;;;4.70;99.90;;;;;;5008014;28;20222;-67
2022/11/22 07:57:34;;;;;;;16.23;1.50;;;4.70;99.90;;;;;;5024663;28;20178;-67
2022/11/22 08:00:00;;;;;;;2.23;1.17;;;4.80;99.90;;;;;;5018701;28;20651;-67
2022/11/22 08:02:26;;;;;;;9.70;1.30;;;4.80;99.90;;;;;;5007364;28;20706;-67
2022/11/22 08:04:52;;;;;;;2.27;1.20;;;4.80;99.90;;;;;;5001596;28;20185;-67
2022/11/22 08:07:18;;;;;;;6.40;2.00;;;4.80;99.90;;;;;;5006357;28;20438;-66
2022/11/22 08:09:43;;;;;;;4.60;1.23;;;4.80;99.90;;;;;;5002781;28;20466;-67
2022/11/22 08:12:09;;;;;;;4.50;1.43;;;4.80;99.90;;;;;;5003472;28;20668;-67
2022/11/22 08:14:35;;;;;;;10.83;2.60;;;4.80;99.90;;;;;;5019856;28;20201;-67
2022/11/22 08:17:01;;;;;;;10.70;4.17;;;4.80;99.90;;;;;;5016428;28;20658;-67
2022/11/22 08:19:26;;;;;;;6.20;2.07;;;4.90;99.90;;;;;;5016969;28;21012;-67
2022/11/22 08:21:52;;;;;;;4.10;1.40;;;4.90;99.90;;;;;;5008662;28;20422;-66
2022/11/22 08:24:18;;;;;;;3.40;1.47;;;4.90;99.90;;;;;;5034634;28;20573;-66
2022/11/22 08:26:43;;;;;;;3.73;1.60;;;4.90;99.90;;;;;;5034496;28;20208;-66
2022/11/22 08:29:11;;;;;;;3.13;1.50;;;5.00;99.90;;;;;;5022750;28;20320;-66
2022/11/22 08:31:37;;;;;;;4.67;1.40;;;5.00;99.90;;;;;;5028859;28;20777;-66
2022/11/22 08:34:03;;;;;;;4.20;1.10;;;5.00;99.90;;;;;;5027674;28;20475;-65
2022/11/22 08:36:30;;;;;;;4.53;1.53;;;5.00;99.90;;;;;;5034133;28;20940;-66
2022/11/22 08:38:55;;;;;;;6.57;1.70;;;5.00;99.90;;;;;;5012788;28;20473;-66
2022/11/22 08:41:22;;;;;;;7.77;1.60;;;5.10;99.90;;;;;;5023628;28;20501;-66
2022/11/22 08:43:51;;;;;;;5.07;1.87;;;5.10;99.90;;;;;;5033581;28;20700;-66
2022/11/22 08:46:18;;;;;;;4.57;1.70;;;5.20;99.90;;;;;;5034082;28;20421;-66
2022/11/22 08:48:44;;;;;;;2.97;1.10;;;5.20;99.90;;;;;;5033572;28;20503;-66
2022/11/22 08:51:12;;;;;;;5.03;1.43;;;5.20;99.90;;;;;;5019316;28;20410;-66
2022/11/22 08:53:41;;;;;;;17.23;1.80;;;5.20;99.90;;;;;;5022207;28;20433;-68
2022/11/22 08:56:10;;;;;;;2.63;1.40;;;5.30;99.90;;;;;;5028731;28;20443;-66
2022/11/22 08:58:36;;;;;;;3.00;1.37;;;5.30;99.90;;;;;;5028488;28;20420;-66
2022/11/22 09:01:10;;;;;;;3.50;1.60;;;5.40;99.90;;;;;;5033795;28;20413;-66
2022/11/22 09:03:36;;;;;;;2.37;0.90;;;5.40;99.90;;;;;;5019688;28;20426;-66
2022/11/22 09:06:07;;;;;;;4.80;1.47;;;5.40;99.90;;;;;;5024626;28;20426;-66
2022/11/22 09:08:34;;;;;;;3.30;1.17;;;5.40;99.90;;;;;;5029468;28;20465;-66
2022/11/22 09:11:06;;;;;;;4.40;1.23;;;5.50;99.90;;;;;;5033656;28;20504;-66
2022/11/22 09:13:32;;;;;;;2.57;1.20;;;5.50;99.90;;;;;;5028779;28;20425;-66
2022/11/22 09:16:06;;;;;;;5.73;1.17;;;5.50;99.90;;;;;;5013595;28;20505;-66
2022/11/22 09:18:32;;;;;;;2.07;0.90;;;5.60;99.90;;;;;;5031106;28;20508;-66
2022/11/22 09:20:59;;;;;;;4.00;1.63;;;5.60;99.90;;;;;;5022249;28;20751;-66
2022/11/22 09:23:24;;;;;;;4.20;1.30;;;5.70;99.90;;;;;;5017692;28;20420;-66
2022/11/22 09:25:58;;;;;;;5.30;0.80;;;5.70;99.90;;;;;;5033234;28;20447;-66
2022/11/22 09:28:25;;;;;;;9.30;1.70;;;5.80;99.90;;;;;;5026658;28;20214;-66
2022/11/22 09:30:57;;;;;;;6.30;1.33;;;5.80;99.90;;;;;;5022273;28;20413;-65
2022/11/22 09:33:22;;;;;;;12.33;2.33;;;5.80;99.90;;;;;;5020289;28;20512;-66
2022/11/22 09:35:48;;;;;;;6.33;1.30;;;5.80;99.90;;;;;;5013476;28;20557;-66
2022/11/22 09:38:13;;;;;;;2.13;0.77;;;5.80;99.90;;;;;;5025893;28;20191;-65
2022/11/22 09:40:45;;;;;;;5.83;1.20;;;5.80;99.90;;;;;;5026600;28;20190;-66
2022/11/22 09:43:32;;;;;;;9.03;1.17;;;5.80;99.90;;;;;;5024650;28;20190;-66
2022/11/22 09:46:10;;;;;;;1.90;1.00;;;5.90;99.90;;;;;;5030040;28;20425;-66
2022/11/22 09:48:41;;;;;;;3.00;1.40;;;5.90;99.90;;;;;;5032396;28;20870;-66
2022/11/22 09:51:18;;;;;;;5.83;1.37;;;5.90;99.90;;;;;;5031319;28;20429;-66
2022/11/22 09:53:51;;;;;;;4.03;1.07;;;5.90;99.90;;;;;;5026150;28;20436;-66
2022/11/22 09:56:21;;;;;;;5.43;1.43;;;5.90;99.90;;;;;;5028839;28;20947;-66
2022/11/22 09:58:55;;;;;;;3.10;1.50;;;6.00;99.90;;;;;;5017234;28;20421;-66
2022/11/22 10:01:24;;;;;;;4.87;1.27;;;5.90;99.90;;;;;;5011808;28;20425;-66
2022/11/22 10:03:59;;;;;;;3.63;1.53;;;5.90;99.90;;;;;;5014901;28;20433;-66
2022/11/22 10:06:34;;;;;;;3.10;1.00;;;5.90;99.90;;;;;;5031883;28;20427;-66
2022/11/22 10:09:16;;;;;;;3.13;1.83;;;5.90;99.90;;;;;;5032130;28;20459;-66
2022/11/22 10:11:58;;;;;;;2.07;0.97;;;5.90;99.90;;;;;;5032048;28;20444;-66
2022/11/22 10:14:42;;;;;;;4.20;1.80;;;5.90;99.90;;;;;;5032276;28;20420;-66
2022/11/22 10:17:42;;;;;;;3.37;1.30;;;5.90;99.90;;;;;;5019309;28;20417;-66
2022/11/22 10:20:29;;;;;;;1.87;0.70;;;5.90;99.90;;;;;;5013390;28;20414;-67
2022/11/22 10:22:57;;;;;;;3.77;1.27;;;5.90;99.90;;;;;;5024395;28;20452;-66
2022/11/22 10:25:42;;;;;;;2.50;1.10;;;5.90;99.90;;;;;;5012705;28;20422;-67
2022/11/22 10:28:29;;;;;;;2.70;1.10;;;5.90;99.90;;;;;;5027692;28;20461;-67
2022/11/22 10:31:16;;;;;;;2.93;1.37;;;5.90;99.90;;;;;;5020794;28;20426;-66
2022/11/22 10:34:00;;;;;;;6.13;2.23;;;6.00;99.90;;;;;;5007776;28;20409;-66
2022/11/22 10:36:35;;;;;;;4.00;1.50;;;6.00;99.90;;;;;;5028801;28;20413;-67
2022/11/22 10:39:22;;;;;;;7.77;2.30;;;6.00;99.90;;;;;;5023523;28;20424;-66
2022/11/22 10:42:05;;;;;;;12.30;2.53;;;6.00;99.90;;;;;;5032042;28;20421;-67
2022/11/22 10:45:09;;;;;;;6.63;1.93;;;6.00;99.90;;;;;;5028133;28;20910;-67
2022/11/22 10:47:47;;;;;;;1.20;0.63;;;6.00;99.90;;;;;;5012674;28;20917;-67
2022/11/22 10:50:27;;;;;;;2.53;1.00;;;6.10;99.90;;;;;;5022216;28;20422;-67
2022/11/22 10:53:08;;;;;;;13.90;1.10;;;6.10;99.90;;;;;;5016609;28;20409;-67
2022/11/22 10:55:37;;;;;;;2.13;1.20;;;6.20;99.90;;;;;;5026685;28;20438;-67
2022/11/22 10:58:18;;;;;;;2.43;0.90;;;6.10;99.90;;;;;;5029580;28;20413;-67
2022/11/22 11:00:49;;;;;;;1.60;0.93;;;6.20;99.90;;;;;;5010887;28;20406;-67
2022/11/22 11:03:32;;;;;;;7.20;1.40;;;6.20;99.90;;;;;;5022391;28;20904;-67
2022/11/22 11:06:03;;;;;;;1.30;0.70;;;6.20;99.90;;;;;;5014233;28;20418;-67
2022/11/22 11:08:38;;;;;;;2.27;1.00;;;6.20;99.90;;;;;;5003185;28;20546;-67
2022/11/22 11:11:03;;;;;;;5.13;0.87;;;6.30;99.90;;;;;;5006258;28;20419;-66
2022/11/22 11:13:38;;;;;;;3.53;1.13;;;6.30;99.90;;;;;;5000621;28;20430;-66
2022/11/22 11:16:11;;;;;;;4.73;1.23;;;6.30;99.90;;;;;;5012065;28;20437;-67
2022/11/22 11:18:55;;;;;;;2.23;0.80;;;6.30;99.90;;;;;;5028639;28;20925;-67
2022/11/22 11:21:20;;;;;;;2.40;0.90;;;6.30;99.90;;;;;;5029254;28;20425;-67
2022/11/22 11:23:47;;;;;;;3.43;0.70;;;6.30;99.90;;;;;;5024595;28;20422;-67
2022/11/22 11:26:33;;;;;;;6.93;1.57;;;6.30;99.90;;;;;;5012432;28;20185;-67
2022/11/22 11:29:16;;;;;;;1.60;0.70;;;6.40;99.90;;;;;;5001283;28;20822;-67
2022/11/22 11:32:12;;;;;;;1.77;1.00;;;6.50;99.90;;;;;;5011909;28;20421;-67
2022/11/22 11:34:47;;;;;;;6.10;1.37;;;6.50;99.90;;;;;;5025065;28;20473;-66
2022/11/22 11:37:22;;;;;;;2.70;0.90;;;6.50;99.90;;;;;;5021822;28;20453;-67
2022/11/22 11:39:48;;;;;;;4.50;1.33;;;6.50;99.90;;;;;;5030131;28;20424;-67
2022/11/22 11:42:27;;;;;;;3.63;1.60;;;6.50;99.90;;;;;;5019588;28;20432;-67
2022/11/22 11:44:54;;;;;;;1.40;0.60;;;6.50;99.90;;;;;;5005747;28;20421;-67
2022/11/22 11:47:40;;;;;;;6.30;1.03;;;6.60;99.90;;;;;;5031993;28;20417;-67
2022/11/22 11:50:17;;;;;;;2.93;1.10;;;6.60;99.90;;;;;;5031354;28;20571;-67
2022/11/22 11:52:50;;;;;;;1.77;1.00;;;6.70;99.90;;;;;;5020945;28;20458;-67
2022/11/22 11:55:16;;;;;;;4.30;1.60;;;6.60;99.90;;;;;;5027072;28;20503;-67
2022/11/22 11:57:43;;;;;;;3.53;0.83;;;6.70;99.90;;;;;;5018692;28;20463;-67
2022/11/22 12:00:19;;;;;;;3.77;1.00;;;6.70;99.90;;;;;;5024011;28;21024;-67
2022/11/22 12:02:46;;;;;;;6.50;1.03;;;6.80;99.90;;;;;;5020551;28;20420;-67
2022/11/22 12:05:12;;;;;;;2.70;1.33;;;6.70;99.90;;;;;;5030320;28;20989;-67
2022/11/22 12:07:43;;;;;;;2.40;0.77;;;6.70;99.90;;;;;;5031732;28;20429;-67
2022/11/22 12:10:44;;;;;;;2.20;1.10;;;6.80;99.90;;;;;;5031121;28;20210;-67
2022/11/22 12:13:29;;;;;;;3.57;1.27;;;6.70;99.90;;;;;;4998640;28;20429;-67
2022/11/22 12:15:57;;;;;;;2.23;1.10;;;6.70;99.90;;;;;;5020616;28;20422;-67
2022/11/22 12:18:52;;;;;;;6.97;0.90;;;6.80;99.90;;;;;;5014298;28;20794;-67
2022/11/22 12:21:45;;;;;;;2.73;0.67;;;6.80;99.90;;;;;;5017666;28;20516;-67
2022/11/22 12:24:17;;;;;;;9.07;1.00;;;6.80;99.90;;;;;;5022167;28;20932;-67
2022/11/22 12:26:42;;;;;;;7.70;1.07;;;6.80;99.90;;;;;;5018022;28;20930;-67
2022/11/22 12:29:13;;;;;;;4.67;1.13;;;6.90;99.90;;;;;;5015163;28;20584;-67
2022/11/22 12:31:44;;;;;;;2.20;0.70;;;6.90;99.90;;;;;;5020139;28;20179;-67
2022/11/22 12:34:16;;;;;;;2.53;0.90;;;6.90;99.90;;;;;;5029528;28;20504;-67
2022/11/22 12:36:50;;;;;;;2.90;1.07;;;6.90;99.90;;;;;;5023510;28;20978;-66
2022/11/22 12:39:26;;;;;;;2.57;1.23;;;7.00;99.90;;;;;;5022543;28;20913;-67
2022/11/22 12:42:19;;;;;;;2.23;0.73;;;6.90;99.90;;;;;;5018956;28;20425;-67
2022/11/22 12:44:54;;;;;;;2.77;1.10;;;6.90;99.90;;;;;;5015585;28;20441;-68
2022/11/22 12:47:23;;;;;;;2.47;1.10;;;6.80;99.90;;;;;;5027295;28;20421;-68
2022/11/22 12:49:57;;;;;;;7.37;1.20;;;6.90;99.90;;;;;;5023304;28;20473;-67
2022/11/22 12:52:24;;;;;;;3.30;1.00;;;6.90;99.90;;;;;;5010522;28;20426;-67
2022/11/22 12:55:16;;;;;;;1.57;0.70;;;6.90;99.90;;;;;;5016584;28;20447;-67
2022/11/22 12:58:05;;;;;;;5.90;0.90;;;6.90;99.90;;;;;;5028481;28;20532;-67
2022/11/22 13:00:36;;;;;;;4.70;1.33;;;7.00;99.90;;;;;;5016371;28;20454;-67
2022/11/22 13:03:11;;;;;;;1.50;0.70;;;7.00;99.90;;;;;;5019631;28;20525;-67
2022/11/22 13:05:46;;;;;;;1.30;0.60;;;7.00;99.90;;;;;;5010709;28;20418;-67
2022/11/22 13:08:27;;;;;;;1.30;0.57;;;7.00;99.90;;;;;;5022320;28;20787;-67
2022/11/22 13:10:53;;;;;;;4.33;0.97;;;7.10;99.90;;;;;;5001561;28;20413;-67
2022/11/22 13:13:24;;;;;;;9.07;0.80;;;7.00;99.90;;;;;;5012996;28;20432;-67
2022/11/22 13:15:52;;;;;;;1.67;0.60;;;7.00;99.90;;;;;;5033570;28;20225;-67
2022/11/22 13:18:19;;;;;;;4.30;1.13;;;7.00;99.90;;;;;;5019763;28;20426;-67
2022/11/22 13:21:13;;;;;;;2.27;0.57;;;6.90;99.90;;;;;;5033545;28;20503;-67